Details From KNLC - Lemoore Nas
To KNFG - Camp Pendleton Mcas
Flight Number -
Tags Generated
Created
Modified
Stats Distance 223 nm / 413 km
Max Altitude 0 ft / 0 m
Waypoints 3
Social Downloads 3
Likes 0
Share VATSIM

Download

Looking for another format? Having issues loading an existing format? Contact us
Advertisement - Login to hide

Notes

Generated

Route

KNLC MANBY KNFG

ID Type Via Altitude Latitude Longitude Leg Dist Tot Dist Heading (true) Name
O KNLC APT - 0 ft / 0 m 36.33596˚ -119.96226˚ - 0 nm - -
MANBY FIX - 0 ft / 0 m 33.65072˚ -117.64330˚ 197 nm 197 nm 144° / 145° -
O KNFG APT - 0 ft / 0 m 33.29553˚ -117.36191˚ 25 nm 223 nm 146° / 147° Camp Pendleton MCAS

Altitude Profile

Advertisement - Login to hide

Weather


0- 5 10 15 20 25 30 35+ Temperature / ° C

Clouds and Precipitation
Forecast for 2018-05-26 00:00 UTC. Updated 2 hours ago

Ground ~20,000 ft ~40,000 ft Winds

KNLC

Details ICAO KNLC (NLC)
Name LEMOORE NAS
Region United States
Timezone America/Los_Angeles (UTC-7.0)
Stats Elevation 234 ft / 71 m (AMSL)
Location 36.333083° -119.952134°
Runways 2
Magnetic Variation 12.742° E

METAR

KNLC 260056Z AUTO 01007KT 10SM BKN049 OVC070 21/08 A3005 RMK AO2 SLP174 T02110083

Decode

TAF

Not found

Departure Runways

ID Width Length Bearing (true) Bearing (mag) Surface Threshold Offset Overrun Length
14L 200 ft / 61 m 13,521 ft / 4,121 m 156.08° 143.34° Concrete 0 ft / 0 m 1,001 ft / 305 m
14R 200 ft / 61 m 13,519 ft / 4,121 m 156.08° 143.34° Concrete 0 ft / 0 m 1,001 ft / 305 m
32L 200 ft / 61 m 13,519 ft / 4,121 m 336.09° 323.35° Concrete 0 ft / 0 m 1,001 ft / 305 m
32R 200 ft / 61 m 13,521 ft / 4,121 m 336.09° 323.35° Concrete 0 ft / 0 m 1,001 ft / 305 m

KNFG

Details ICAO KNFG
Name Camp Pendleton MCAS
Region United States
Timezone America/Los_Angeles (UTC-7.0)
Stats Elevation 78 ft / 24 m (AMSL)
Location 33.301390° -117.355000°
Runways 1
Magnetic Variation 11.629° E

METAR

KNFG 252355Z AUTO 29012G19KT 10SM CLR 19/12 A3005 RMK AO2 SLP176 T01890117 10206 20189 58014

Decode

TAF

TAF KNFG 2521/2621 24010KT 9999 SCT045 QNH3006INS TEMPO 2521/2603 24010G18KT FM260530 VRB05KT 9999 BKN030 OVC045 QNH3003INS TEMPO 2606/2612 BKN020 T23/2521Z T13/2613Z

Decode

Destination Runways

ID Width Length Bearing (true) Bearing (mag) Surface Threshold Offset Overrun Length
03 200 ft / 61 m 6,004 ft / 1,830 m 44.60° 32.97° Asphalt 0 ft / 0 m 1,000 ft / 305 m
21 200 ft / 61 m 6,004 ft / 1,830 m 224.61° 212.98° Asphalt 0 ft / 0 m 1,000 ft / 305 m